createdAt,value
2022-12-03T00:02:19.131Z,22.58
2022-12-03T00:04:47.797Z,26.88
2022-12-03T00:07:14.743Z,22.75
2022-12-03T00:09:41.318Z,24.17
2022-12-03T00:12:08.422Z,23.25
2022-12-03T00:14:38.853Z,29.60
2022-12-03T00:17:10.105Z,23.95
2022-12-03T00:19:40.185Z,25.45
2022-12-03T00:22:11.700Z,31.65
2022-12-03T00:24:39.850Z,27.85
2022-12-03T00:27:06.597Z,27.58
2022-12-03T00:29:33.552Z,26.17
2022-12-03T00:32:03.209Z,28.58
2022-12-03T00:34:32.689Z,28.90
2022-12-03T00:37:02.105Z,28.50
2022-12-03T00:39:28.831Z,29.88
2022-12-03T00:41:55.630Z,34.95
2022-12-03T00:44:22.284Z,24.27
2022-12-03T00:46:49.123Z,24.52
2022-12-03T00:49:15.907Z,25.13
2022-12-03T00:51:44.773Z,26.50
2022-12-03T00:54:11.681Z,27.83
2022-12-03T00:56:41.093Z,28.80
2022-12-03T00:59:10.960Z,25.70
2022-12-03T01:01:41.499Z,24.65
2022-12-03T01:04:08.376Z,23.50
2022-12-03T01:06:38.559Z,23.88
2022-12-03T01:09:05.446Z,24.33
2022-12-03T01:11:37.985Z,25.17
2022-12-03T01:14:21.475Z,24.15
2022-12-03T01:16:48.408Z,27.35
2022-12-03T01:19:16.581Z,26.38
2022-12-03T01:21:45.138Z,24.92
2022-12-03T01:24:12.205Z,26.10
2022-12-03T01:26:39.101Z,27.50
2022-12-03T01:29:06.655Z,26.08
2022-12-03T01:31:56.029Z,24.55
2022-12-03T01:34:23.273Z,21.92
2022-12-03T01:36:54.722Z,21.42
2022-12-03T01:39:24.499Z,24.90
2022-12-03T01:41:58.803Z,23.13
2022-12-03T01:44:32.524Z,22.27
2022-12-03T01:47:05.252Z,28.95
2022-12-03T01:49:35.730Z,27.23
2022-12-03T01:52:02.568Z,23.73
2022-12-03T01:54:38.283Z,26.92
2022-12-03T01:57:07.894Z,28.42
2022-12-03T01:59:38.999Z,25.85
2022-12-03T02:02:13.257Z,23.83
2022-12-03T02:04:45.426Z,26.48
2022-12-03T02:09:45.771Z,24.35
2022-12-03T02:12:18.038Z,26.77
2022-12-03T02:14:44.920Z,25.63
2022-12-03T02:17:15.203Z,27.08
2022-12-03T02:19:41.839Z,26.30
2022-12-03T02:22:19.475Z,24.17
2022-12-03T02:24:59.120Z,25.50
2022-12-03T02:27:28.332Z,29.05
2022-12-03T02:29:55.095Z,27.63
2022-12-03T02:32:23.605Z,26.38
2022-12-03T02:34:52.070Z,28.60
2022-12-03T02:37:27.831Z,26.48
2022-12-03T02:39:57.289Z,29.63
2022-12-03T02:42:36.647Z,28.63
2022-12-03T02:45:14.181Z,30.67
2022-12-03T02:47:45.399Z,36.20
2022-12-03T02:50:15.266Z,32.97
2022-12-03T02:52:46.950Z,27.92
2022-12-03T02:55:15.817Z,35.70
2022-12-03T02:57:45.970Z,30.17
2022-12-03T03:00:19.593Z,33.35
2022-12-03T03:02:50.995Z,35.05
2022-12-03T03:05:23.536Z,33.00
2022-12-03T03:07:51.581Z,34.33
2022-12-03T03:10:23.824Z,36.45
2022-12-03T03:12:52.765Z,30.55
2022-12-03T03:15:20.276Z,29.95
2022-12-03T03:17:50.182Z,35.53
2022-12-03T03:20:17.006Z,37.30
2022-12-03T03:22:46.771Z,32.92
2022-12-03T03:25:20.710Z,31.05
2022-12-03T03:27:48.450Z,33.38
2022-12-03T03:30:15.428Z,30.55
2022-12-03T03:32:46.006Z,28.55
2022-12-03T03:35:18.001Z,29.20
2022-12-03T03:37:44.794Z,27.25
2022-12-03T03:40:14.682Z,29.05
2022-12-03T03:42:41.765Z,26.95
2022-12-03T03:45:09.816Z,28.45
2022-12-03T03:47:37.272Z,24.27
2022-12-03T03:50:04.440Z,28.90
2022-12-03T03:52:31.391Z,28.35
2022-12-03T03:54:58.364Z,27.30
2022-12-03T03:57:25.081Z,25.80
2022-12-03T03:59:51.722Z,31.17
2022-12-03T04:02:24.763Z,39.67
2022-12-03T04:04:56.228Z,31.00
2022-12-03T04:07:25.066Z,25.90
2022-12-03T04:09:54.138Z,28.88
2022-12-03T04:12:40.830Z,33.35
2022-12-03T04:15:08.139Z,37.53
2022-12-03T04:17:34.770Z,32.53
2022-12-03T04:20:01.332Z,32.97
2022-12-03T04:22:40.305Z,35.47
2022-12-03T04:25:28.337Z,31.85
2022-12-03T04:28:13.597Z,32.38
2022-12-03T04:30:40.301Z,32.15
2022-12-03T04:33:28.841Z,28.80
2022-12-03T04:35:55.651Z,31.13
2022-12-03T04:38:25.707Z,33.67
2022-12-03T04:41:01.255Z,31.00
2022-12-03T04:43:28.747Z,29.17
2022-12-03T04:46:00.889Z,31.52
2022-12-03T04:50:57.569Z,31.45
2022-12-03T04:53:24.386Z,31.58
2022-12-03T04:55:51.083Z,33.60
2022-12-03T04:58:19.833Z,30.98
2022-12-03T05:00:49.359Z,30.50
2022-12-03T05:03:17.959Z,30.00
2022-12-03T05:05:44.572Z,29.17
2022-12-03T05:08:11.304Z,29.73
2022-12-03T05:10:38.580Z,29.77
2022-12-03T05:13:05.286Z,33.83
2022-12-03T05:15:32.155Z,32.95
2022-12-03T05:17:58.846Z,33.13
2022-12-03T05:20:53.911Z,35.63
2022-12-03T05:23:27.182Z,34.42
2022-12-03T05:25:56.674Z,37.78
2022-12-03T05:28:26.628Z,40.67
2022-12-03T05:30:53.407Z,38.08
2022-12-03T05:33:20.648Z,36.17
2022-12-03T05:35:54.149Z,34.28
2022-12-03T05:38:20.807Z,35.97
2022-12-03T05:40:47.770Z,31.85
2022-12-03T05:43:17.649Z,36.63
2022-12-03T05:45:50.369Z,33.25
2022-12-03T05:48:20.364Z,33.03
2022-12-03T05:50:50.383Z,34.25
2022-12-03T05:53:18.604Z,36.13
2022-12-03T05:55:53.862Z,33.47
2022-12-03T05:58:21.752Z,32.75
2022-12-03T06:00:50.807Z,35.03
2022-12-03T06:03:17.576Z,36.63
2022-12-03T06:05:44.584Z,35.45
2022-12-03T06:08:11.285Z,41.58
2022-12-03T06:10:38.086Z,39.58
2022-12-03T06:13:04.665Z,34.60
2022-12-03T06:15:36.344Z,37.30
2022-12-03T06:18:12.827Z,40.22
2022-12-03T06:20:39.838Z,44.42
2022-12-03T06:23:06.481Z,33.85
2022-12-03T06:25:35.954Z,34.65
2022-12-03T06:28:02.635Z,37.00
2022-12-03T06:30:29.276Z,39.22
2022-12-03T06:32:58.246Z,36.55
2022-12-03T06:35:24.990Z,35.35
2022-12-03T06:37:55.764Z,35.03
2022-12-03T06:40:24.611Z,32.08
2022-12-03T06:42:53.941Z,34.70
2022-12-03T06:45:20.691Z,37.33
2022-12-03T06:47:47.369Z,32.25
2022-12-03T06:50:14.507Z,30.55
2022-12-03T06:52:41.200Z,31.85
2022-12-03T06:55:08.371Z,37.60
2022-12-03T06:57:36.143Z,36.10
2022-12-03T07:00:04.104Z,41.45
2022-12-03T07:02:30.867Z,41.03
2022-12-03T07:04:58.226Z,36.28
2022-12-03T07:07:26.701Z,44.22
2022-12-03T07:09:55.924Z,39.97
2022-12-03T07:12:22.580Z,36.22
2022-12-03T07:14:49.292Z,38.65
2022-12-03T07:17:17.165Z,41.72
2022-12-03T07:19:43.822Z,40.65
2022-12-03T07:22:10.589Z,41.40
2022-12-03T07:24:37.294Z,40.85
2022-12-03T07:27:04.070Z,37.38
2022-12-03T07:29:30.716Z,39.10
2022-12-03T07:31:57.355Z,37.72
2022-12-03T07:34:27.672Z,38.30
2022-12-03T07:36:54.511Z,33.42
2022-12-03T07:39:21.215Z,34.17
2022-12-03T07:41:47.867Z,32.35
2022-12-03T07:44:15.160Z,29.58
2022-12-03T07:46:42.571Z,29.33
2022-12-03T07:49:12.527Z,29.77
2022-12-03T07:51:39.482Z,27.63
2022-12-03T07:54:06.382Z,29.80
2022-12-03T07:56:33.030Z,27.00
2022-12-03T07:58:59.641Z,33.13
2022-12-03T08:01:26.419Z,27.40
2022-12-03T08:03:53.393Z,26.85
2022-12-03T08:06:29.038Z,25.10
2022-12-03T08:08:58.850Z,27.40
2022-12-03T08:11:29.048Z,28.77
2022-12-03T08:13:59.533Z,28.95
2022-12-03T08:16:27.237Z,33.45
2022-12-03T08:18:57.646Z,32.65
2022-12-03T08:21:24.361Z,32.15
2022-12-03T08:23:51.106Z,33.28
2022-12-03T08:26:24.032Z,33.10
2022-12-03T08:28:51.995Z,32.70
2022-12-03T08:31:33.755Z,32.08
2022-12-03T08:34:15.981Z,38.08
2022-12-03T08:36:42.839Z,33.85
2022-12-03T08:39:29.859Z,30.05
2022-12-03T08:42:21.193Z,33.60
2022-12-03T08:44:51.086Z,32.65
2022-12-03T08:47:27.487Z,31.92
2022-12-03T08:50:01.658Z,33.80
2022-12-03T08:52:32.541Z,34.38
2022-12-03T08:55:00.676Z,30.10
2022-12-03T08:57:34.693Z,39.63
2022-12-03T09:00:18.622Z,30.83
2022-12-03T09:02:51.713Z,34.08
2022-12-03T09:05:32.951Z,32.65
2022-12-03T09:08:00.355Z,33.83
2022-12-03T09:10:27.065Z,36.88
2022-12-03T09:12:53.837Z,35.53
2022-12-03T09:15:20.461Z,31.15
2022-12-03T09:17:47.253Z,30.05
2022-12-03T09:20:14.472Z,30.60
2022-12-03T09:22:41.337Z,29.00
2022-12-03T09:25:09.133Z,27.70
2022-12-03T09:27:35.895Z,30.42
2022-12-03T09:30:03.649Z,29.27
2022-12-03T09:32:30.570Z,29.20
2022-12-03T09:34:58.770Z,26.85
2022-12-03T09:37:25.666Z,31.75
2022-12-03T09:39:54.637Z,28.88
2022-12-03T09:42:21.837Z,28.88
2022-12-03T09:44:48.951Z,24.38
2022-12-03T09:47:15.629Z,27.80
2022-12-03T09:49:43.274Z,26.55
2022-12-03T09:52:16.916Z,27.70
2022-12-03T09:54:52.136Z,35.35
2022-12-03T09:57:19.826Z,31.38
2022-12-03T09:59:51.393Z,30.70
2022-12-03T10:02:29.298Z,28.73
2022-12-03T10:04:57.667Z,32.80
2022-12-03T10:07:25.595Z,32.55
2022-12-03T10:09:53.239Z,36.08
2022-12-03T10:12:24.776Z,36.53
2022-12-03T10:14:52.917Z,35.10
2022-12-03T10:17:22.151Z,37.45
2022-12-03T10:19:54.935Z,37.28
2022-12-03T10:22:24.836Z,38.88
2022-12-03T10:25:23.992Z,39.25
2022-12-03T10:28:00.976Z,35.97
2022-12-03T10:30:28.994Z,39.58
2022-12-03T10:33:02.864Z,41.63
2022-12-03T10:35:44.668Z,46.20
2022-12-03T10:38:17.920Z,41.13
2022-12-03T10:40:45.527Z,42.38
2022-12-03T10:43:22.068Z,44.97
2022-12-03T10:46:10.403Z,45.03
2022-12-03T10:48:40.431Z,47.17
2022-12-03T10:51:25.132Z,49.05
2022-12-03T10:53:54.974Z,50.78
2022-12-03T10:56:29.463Z,48.35
2022-12-03T10:58:56.669Z,52.72
2022-12-03T11:01:25.911Z,50.90
2022-12-03T11:04:00.764Z,51.45
2022-12-03T11:06:33.269Z,51.95
2022-12-03T11:09:08.313Z,44.80
2022-12-03T11:11:35.881Z,48.50
2022-12-03T11:14:06.777Z,55.58
2022-12-03T11:16:39.798Z,48.90
2022-12-03T11:19:12.592Z,48.70
2022-12-03T11:22:07.137Z,48.85
2022-12-03T11:24:37.020Z,45.30
2022-12-03T11:27:03.709Z,41.60
2022-12-03T11:29:50.542Z,43.03
2022-12-03T11:32:39.382Z,47.08
2022-12-03T11:35:24.676Z,44.22
2022-12-03T11:37:54.739Z,46.60
2022-12-03T11:40:21.649Z,41.83
2022-12-03T11:42:49.337Z,48.10
2022-12-03T11:45:22.755Z,39.28
2022-12-03T11:48:18.113Z,40.53
2022-12-03T11:50:51.260Z,37.45
2022-12-03T11:53:22.302Z,41.72
2022-12-03T11:56:09.415Z,40.35
2022-12-03T11:58:38.852Z,38.13
2022-12-03T12:01:08.959Z,39.13
2022-12-03T12:03:48.272Z,44.38
2022-12-03T12:06:22.202Z,38.58
2022-12-03T12:08:53.088Z,41.67
2022-12-03T12:11:27.957Z,39.65
2022-12-03T12:14:05.608Z,34.33
2022-12-03T12:16:53.520Z,36.58
2022-12-03T12:19:41.309Z,46.33
2022-12-03T12:22:25.343Z,48.67
2022-12-03T12:25:01.339Z,41.60
2022-12-03T12:27:34.446Z,49.03
2022-12-03T12:30:05.324Z,49.15
2022-12-03T12:32:42.060Z,54.72
2022-12-03T12:35:33.008Z,50.47
2022-12-03T12:38:11.473Z,50.13
2022-12-03T12:40:42.381Z,56.10
2022-12-03T12:43:37.347Z,49.05
2022-12-03T12:49:00.634Z,50.15
2022-12-03T12:51:27.393Z,55.90
2022-12-03T12:53:54.216Z,55.13
2022-12-03T12:56:31.377Z,48.70
2022-12-03T12:59:12.857Z,50.92
2022-12-03T13:01:40.688Z,53.47
2022-12-03T13:04:17.643Z,49.40
2022-12-03T13:06:50.169Z,51.80
2022-12-03T13:09:24.450Z,59.95
2022-12-03T13:11:54.456Z,54.03
2022-12-03T13:14:26.795Z,44.58
2022-12-03T13:19:52.176Z,52.60
2022-12-03T13:22:28.214Z,48.13
2022-12-03T13:25:00.277Z,47.58
2022-12-03T13:27:30.426Z,50.38
2022-12-03T13:30:01.180Z,53.97
2022-12-03T13:32:37.599Z,47.20
2022-12-03T13:35:24.951Z,46.72
2022-12-03T13:37:51.820Z,43.30
2022-12-03T13:40:33.066Z,48.92
2022-12-03T13:43:00.138Z,46.28
2022-12-03T13:45:41.751Z,50.08
2022-12-03T13:48:27.995Z,48.60
2022-12-03T13:50:55.386Z,53.72
2022-12-03T13:53:26.149Z,53.17
2022-12-03T13:56:03.607Z,54.17
2022-12-03T13:58:36.259Z,45.35
2022-12-03T14:01:03.123Z,47.63
2022-12-03T14:03:29.907Z,49.88
2022-12-03T14:05:56.913Z,54.83
2022-12-03T14:08:23.791Z,52.15
2022-12-03T14:10:54.270Z,49.47
2022-12-03T14:13:27.448Z,60.45
2022-12-03T14:15:58.015Z,54.83
2022-12-03T14:18:25.026Z,58.45
2022-12-03T14:20:54.695Z,58.65
2022-12-03T14:23:27.567Z,57.97
2022-12-03T14:25:55.698Z,59.65
2022-12-03T14:28:26.589Z,56.67
2022-12-03T14:30:55.249Z,60.95
2022-12-03T14:33:22.980Z,64.20
2022-12-03T14:35:55.916Z,68.25
2022-12-03T14:38:22.718Z,63.13
2022-12-03T14:40:49.574Z,57.22
2022-12-03T14:43:22.433Z,62.53
2022-12-03T14:45:49.231Z,58.78
2022-12-03T14:48:16.017Z,65.22
2022-12-03T14:50:46.224Z,57.78
2022-12-03T14:53:27.437Z,69.40
2022-12-03T14:55:57.259Z,58.60
2022-12-03T14:58:26.151Z,56.90
2022-12-03T15:00:52.814Z,63.72
2022-12-03T15:03:20.055Z,63.95
2022-12-03T15:05:52.689Z,66.30
2022-12-03T15:08:19.629Z,69.88
2022-12-03T15:10:46.451Z,70.78
2022-12-03T15:13:13.376Z,65.70
2022-12-03T15:15:43.237Z,67.97
2022-12-03T15:18:10.070Z,70.50
2022-12-03T15:20:39.956Z,65.57
2022-12-03T15:23:15.867Z,73.57
2022-12-03T15:25:56.945Z,77.95
2022-12-03T15:28:24.750Z,75.32
2022-12-03T15:30:51.682Z,82.15
2022-12-03T15:33:24.227Z,73.45
2022-12-03T15:35:51.014Z,66.47
2022-12-03T15:38:19.512Z,72.05
2022-12-03T15:40:51.493Z,59.28
2022-12-03T15:43:18.431Z,63.55
2022-12-03T15:45:51.699Z,70.47
2022-12-03T15:48:18.776Z,74.88
2022-12-03T15:50:45.694Z,68.15
2022-12-03T15:53:17.138Z,63.05
2022-12-03T15:55:43.962Z,68.05
2022-12-03T15:58:10.708Z,73.78
2022-12-03T16:00:37.504Z,67.63
2022-12-03T16:03:04.494Z,66.18
2022-12-03T16:05:31.271Z,69.85
2022-12-03T16:07:58.069Z,68.90
2022-12-03T16:10:24.845Z,70.60
2022-12-03T16:12:51.595Z,79.72
2022-12-03T16:15:26.698Z,74.15
2022-12-03T16:17:54.095Z,79.15
2022-12-03T16:20:20.808Z,80.80
2022-12-03T16:22:48.143Z,70.80
2022-12-03T16:25:17.597Z,87.25
2022-12-03T16:27:44.645Z,80.38
2022-12-03T16:30:15.726Z,79.32
2022-12-03T16:32:42.728Z,91.15
2022-12-03T16:35:10.673Z,80.65
2022-12-03T16:37:37.584Z,92.05
2022-12-03T16:40:04.933Z,91.97
2022-12-03T16:42:39.160Z,87.78
2022-12-03T16:45:09.938Z,88.18
2022-12-03T16:47:37.300Z,98.22
2022-12-03T16:50:17.971Z,92.28
2022-12-03T16:52:48.223Z,97.20
2022-12-03T16:55:20.966Z,95.00
2022-12-03T16:57:49.213Z,81.63
2022-12-03T17:02:56.517Z,76.65
2022-12-03T17:05:23.444Z,77.68
2022-12-03T17:07:52.026Z,85.07
2022-12-03T17:10:24.877Z,78.05
2022-12-03T17:15:40.025Z,80.78
2022-12-03T17:18:12.816Z,74.75
2022-12-03T17:20:40.833Z,83.30
2022-12-03T17:23:08.144Z,75.30
2022-12-03T17:25:35.460Z,71.20
2022-12-03T17:28:02.839Z,77.28
2022-12-03T17:30:36.166Z,71.50
2022-12-03T17:33:03.792Z,75.95
2022-12-03T17:35:32.425Z,80.57
2022-12-03T17:38:03.707Z,80.40
2022-12-03T17:40:30.401Z,72.57
2022-12-03T17:42:57.140Z,82.93
2022-12-03T17:45:24.006Z,86.43
2022-12-03T17:47:50.762Z,91.88
2022-12-03T17:50:17.523Z,82.40
2022-12-03T17:52:44.436Z,79.13
2022-12-03T17:55:15.734Z,81.65
2022-12-03T17:57:50.098Z,81.72
2022-12-03T18:00:20.585Z,77.55
2022-12-03T18:02:47.360Z,74.38
2022-12-03T18:05:14.380Z,83.05
2022-12-03T18:07:42.097Z,81.93
2022-12-03T18:10:09.371Z,77.03
2022-12-03T18:12:37.820Z,78.43
2022-12-03T18:15:05.157Z,78.47
2022-12-03T18:17:33.467Z,70.32
2022-12-03T18:20:00.313Z,74.15
2022-12-03T18:22:28.460Z,74.32
2022-12-03T18:24:55.732Z,77.65
2022-12-03T18:27:23.726Z,71.15
2022-12-03T18:29:52.977Z,68.30
2022-12-03T18:32:28.972Z,75.35
2022-12-03T18:34:57.492Z,71.20
2022-12-03T18:37:29.986Z,79.75
2022-12-03T18:39:59.468Z,71.00
2022-12-03T18:42:31.858Z,87.32
2022-12-03T18:44:58.790Z,79.78
2022-12-03T18:47:32.050Z,77.63
2022-12-03T18:50:02.378Z,76.82
2022-12-03T18:52:32.715Z,76.78
2022-12-03T18:55:00.207Z,76.70
2022-12-03T18:57:27.190Z,82.57
2022-12-03T18:59:54.125Z,77.57
2022-12-03T19:05:08.737Z,65.38
2022-12-03T19:07:37.637Z,71.70
2022-12-03T19:10:05.280Z,71.10
2022-12-03T19:12:33.191Z,65.40
2022-12-03T19:14:59.805Z,67.53
2022-12-03T19:17:27.576Z,71.00
2022-12-03T19:19:55.239Z,71.03
2022-12-03T19:22:23.052Z,69.25
2022-12-03T19:24:52.314Z,74.68
2022-12-03T19:27:19.511Z,75.03
2022-12-03T19:29:52.311Z,69.75
2022-12-03T19:32:23.311Z,70.18
2022-12-03T19:34:50.324Z,67.60
2022-12-03T19:37:17.057Z,78.63
2022-12-03T19:39:43.920Z,85.07
2022-12-03T19:42:10.576Z,79.65
2022-12-03T19:44:37.301Z,66.70
2022-12-03T19:47:03.964Z,76.90
2022-12-03T19:49:31.694Z,67.20
2022-12-03T19:51:58.415Z,70.32
2022-12-03T19:54:29.158Z,70.20
2022-12-03T19:56:57.262Z,73.80
2022-12-03T19:59:24.058Z,77.63
2022-12-03T20:01:50.903Z,64.40
2022-12-03T20:04:17.891Z,61.05
2022-12-03T20:06:45.536Z,61.53
2022-12-03T20:09:17.344Z,66.55
2022-12-03T20:11:46.008Z,71.07
2022-12-03T20:14:17.082Z,61.05
2022-12-03T20:16:45.305Z,68.05
2022-12-03T20:19:14.965Z,62.97
2022-12-03T20:21:43.467Z,65.85
2022-12-03T20:24:16.354Z,61.88
2022-12-03T20:26:43.503Z,81.72
2022-12-03T20:29:13.192Z,78.70
2022-12-03T20:31:40.283Z,78.95
2022-12-03T20:34:09.873Z,79.85
2022-12-03T20:36:37.166Z,82.38
2022-12-03T20:39:09.675Z,77.93
2022-12-03T20:41:47.003Z,91.18
2022-12-03T20:44:14.900Z,87.63
2022-12-03T20:46:44.368Z,103.55
2022-12-03T20:49:11.962Z,101.78
2022-12-03T20:51:47.900Z,88.03
2022-12-03T20:54:15.776Z,92.28
2022-12-03T20:56:42.462Z,82.28
2022-12-03T20:59:13.272Z,98.20
2022-12-03T21:01:47.127Z,88.57
2022-12-03T21:04:14.939Z,74.57
2022-12-03T21:06:45.450Z,82.63
2022-12-03T21:09:13.335Z,94.20
2022-12-03T21:11:43.407Z,111.45
2022-12-03T21:14:11.618Z,77.93
2022-12-03T21:17:08.455Z,92.13
2022-12-03T21:19:32.260Z,90.88
2022-12-03T21:22:00.106Z,100.38
2022-12-03T21:24:36.170Z,99.72
2022-12-03T21:27:04.527Z,94.13
2022-12-03T21:29:34.366Z,87.32
2022-12-03T21:32:04.279Z,92.47
2022-12-03T21:34:36.453Z,112.57
2022-12-03T21:37:06.666Z,111.25
2022-12-03T21:39:37.696Z,100.10
2022-12-03T21:42:25.910Z,113.03
2022-12-03T21:44:58.632Z,94.07
2022-12-03T21:47:25.825Z,85.03
2022-12-03T21:49:56.032Z,88.78
2022-12-03T21:52:22.937Z,82.15
2022-12-03T21:54:52.523Z,78.28
2022-12-03T21:57:20.900Z,89.13
2022-12-03T21:59:47.772Z,88.25
2022-12-03T22:02:15.137Z,91.25
2022-12-03T22:04:43.246Z,82.57
2022-12-03T22:07:10.908Z,98.30
2022-12-03T22:09:37.890Z,84.20
2022-12-03T22:12:04.921Z,90.53
2022-12-03T22:14:31.913Z,79.10
2022-12-03T22:16:58.833Z,90.82
2022-12-03T22:19:27.628Z,83.50
2022-12-03T22:21:57.824Z,78.82
2022-12-03T22:24:24.875Z,86.03
2022-12-03T22:26:53.894Z,98.63
2022-12-03T22:29:20.828Z,79.63
2022-12-03T22:31:47.562Z,73.65
2022-12-03T22:34:17.034Z,72.50
2022-12-03T22:36:43.913Z,82.65
2022-12-03T22:39:10.716Z,69.80
2022-12-03T22:41:40.099Z,76.25
2022-12-03T22:44:06.911Z,93.80
2022-12-03T22:46:36.171Z,88.93
2022-12-03T22:49:07.097Z,77.25
2022-12-03T22:51:35.254Z,78.82
2022-12-03T22:54:03.077Z,82.55
2022-12-03T22:56:30.785Z,82.80
2022-12-03T22:58:58.243Z,81.05
2022-12-03T23:01:28.485Z,94.38
2022-12-03T23:04:10.893Z,79.72
2022-12-03T23:06:38.738Z,81.57
2022-12-03T23:09:11.005Z,82.47
2022-12-03T23:11:41.488Z,80.45
2022-12-03T23:14:08.273Z,89.78
2022-12-03T23:16:35.259Z,69.35
2022-12-03T23:19:04.160Z,77.60
2022-12-03T23:21:33.625Z,74.63
2022-12-03T23:24:03.114Z,75.78
2022-12-03T23:26:29.959Z,69.10
2022-12-03T23:28:56.958Z,76.93
2022-12-03T23:31:29.990Z,81.78
2022-12-03T23:33:57.899Z,77.70
2022-12-03T23:36:26.913Z,72.03
2022-12-03T23:38:54.592Z,87.38
2022-12-03T23:41:23.421Z,77.53
2022-12-03T23:43:50.758Z,83.43
2022-12-03T23:46:26.045Z,77.68
2022-12-03T23:48:52.967Z,90.38
2022-12-03T23:51:23.062Z,77.53
2022-12-03T23:53:54.043Z,72.63
2022-12-03T23:56:26.974Z,81.15
2022-12-03T23:58:59.639Z,76.72
